sensor_id;sensor_type;location;lat;lon;timestamp;P1;durP1;ratioP1;P2;durP2;ratioP2
48596;SDS011;34382;43.160;24.148;2022-10-19T00:00:41;6.72;;;3.15;;
48596;SDS011;34382;43.160;24.148;2022-10-19T00:02:13;7.65;;;3.15;;
48596;SDS011;34382;43.160;24.148;2022-10-19T00:03:46;8.60;;;3.20;;
48596;SDS011;34382;43.160;24.148;2022-10-19T00:05:20;8.48;;;3.22;;
48596;SDS011;34382;43.160;24.148;2022-10-19T00:06:52;7.72;;;3.63;;
48596;SDS011;34382;43.160;24.148;2022-10-19T00:08:24;8.13;;;3.92;;
48596;SDS011;34382;43.160;24.148;2022-10-19T00:09:56;7.57;;;3.13;;
48596;SDS011;34382;43.160;24.148;2022-10-19T00:11:29;7.85;;;3.30;;
48596;SDS011;34382;43.160;24.148;2022-10-19T00:13:02;9.77;;;2.83;;
48596;SDS011;34382;43.160;24.148;2022-10-19T00:14:34;7.50;;;3.33;;
48596;SDS011;34382;43.160;24.148;2022-10-19T00:16:10;7.60;;;2.85;;
48596;SDS011;34382;43.160;24.148;2022-10-19T00:17:44;8.38;;;3.45;;
48596;SDS011;34382;43.160;24.148;2022-10-19T00:19:20;7.30;;;3.30;;
48596;SDS011;34382;43.160;24.148;2022-10-19T00:21:01;9.50;;;3.25;;
48596;SDS011;34382;43.160;24.148;2022-10-19T00:22:34;7.00;;;3.08;;
48596;SDS011;34382;43.160;24.148;2022-10-19T00:24:06;7.68;;;3.33;;
48596;SDS011;34382;43.160;24.148;2022-10-19T00:25:39;8.60;;;3.50;;
48596;SDS011;34382;43.160;24.148;2022-10-19T00:27:11;7.75;;;3.45;;
48596;SDS011;34382;43.160;24.148;2022-10-19T00:28:43;8.27;;;3.30;;
48596;SDS011;34382;43.160;24.148;2022-10-19T00:30:15;7.85;;;3.28;;
48596;SDS011;34382;43.160;24.148;2022-10-19T00:31:50;8.07;;;3.58;;
48596;SDS011;34382;43.160;24.148;2022-10-19T00:33:22;9.18;;;3.42;;
48596;SDS011;34382;43.160;24.148;2022-10-19T00:34:54;7.43;;;3.40;;
48596;SDS011;34382;43.160;24.148;2022-10-19T00:36:27;8.55;;;3.53;;
48596;SDS011;34382;43.160;24.148;2022-10-19T00:38:01;7.38;;;3.50;;
48596;SDS011;34382;43.160;24.148;2022-10-19T00:39:33;7.65;;;3.20;;
48596;SDS011;34382;43.160;24.148;2022-10-19T00:41:05;7.90;;;3.03;;
48596;SDS011;34382;43.160;24.148;2022-10-19T00:42:37;7.18;;;3.20;;
48596;SDS011;34382;43.160;24.148;2022-10-19T00:45:44;7.93;;;2.90;;
48596;SDS011;34382;43.160;24.148;2022-10-19T00:47:17;8.23;;;3.63;;
48596;SDS011;34382;43.160;24.148;2022-10-19T00:48:51;7.68;;;3.13;;
48596;SDS011;34382;43.160;24.148;2022-10-19T00:50:26;8.15;;;3.22;;
48596;SDS011;34382;43.160;24.148;2022-10-19T00:52:02;6.70;;;2.97;;
48596;SDS011;34382;43.160;24.148;2022-10-19T00:53:36;6.85;;;3.08;;
48596;SDS011;34382;43.160;24.148;2022-10-19T00:55:08;7.60;;;3.13;;
48596;SDS011;34382;43.160;24.148;2022-10-19T00:56:42;7.20;;;3.30;;
48596;SDS011;34382;43.160;24.148;2022-10-19T00:58:15;7.40;;;3.22;;
48596;SDS011;34382;43.160;24.148;2022-10-19T00:59:47;8.00;;;3.30;;
48596;SDS011;34382;43.160;24.148;2022-10-19T01:01:21;7.68;;;3.28;;
48596;SDS011;34382;43.160;24.148;2022-10-19T01:02:54;6.80;;;3.10;;
48596;SDS011;34382;43.160;24.148;2022-10-19T01:04:27;7.22;;;3.20;;
48596;SDS011;34382;43.160;24.148;2022-10-19T01:06:00;6.53;;;2.95;;
48596;SDS011;34382;43.160;24.148;2022-10-19T01:07:32;9.40;;;3.53;;
48596;SDS011;34382;43.160;24.148;2022-10-19T01:09:05;7.38;;;2.95;;
48596;SDS011;34382;43.160;24.148;2022-10-19T01:12:50;6.75;;;3.15;;
48596;SDS011;34382;43.160;24.148;2022-10-19T01:14:36;6.50;;;3.17;;
48596;SDS011;34382;43.160;24.148;2022-10-19T01:16:48;7.65;;;2.90;;
48596;SDS011;34382;43.160;24.148;2022-10-19T01:20:27;6.82;;;3.05;;
48596;SDS011;34382;43.160;24.148;2022-10-19T01:26:24;7.05;;;2.85;;
48596;SDS011;34382;43.160;24.148;2022-10-19T01:30:05;7.07;;;3.03;;
48596;SDS011;34382;43.160;24.148;2022-10-19T01:31:59;7.93;;;3.05;;
48596;SDS011;34382;43.160;24.148;2022-10-19T01:33:45;6.20;;;2.72;;
48596;SDS011;34382;43.160;24.148;2022-10-19T01:35:51;6.68;;;3.05;;
48596;SDS011;34382;43.160;24.148;2022-10-19T01:37:41;6.70;;;2.65;;
48596;SDS011;34382;43.160;24.148;2022-10-19T01:39:24;8.13;;;3.00;;
48596;SDS011;34382;43.160;24.148;2022-10-19T01:41:19;8.15;;;3.00;;
48596;SDS011;34382;43.160;24.148;2022-10-19T01:43:02;8.93;;;3.50;;
48596;SDS011;34382;43.160;24.148;2022-10-19T01:44:41;7.43;;;3.25;;
48596;SDS011;34382;43.160;24.148;2022-10-19T01:46:36;7.35;;;3.38;;
48596;SDS011;34382;43.160;24.148;2022-10-19T01:48:11;7.93;;;3.10;;
48596;SDS011;34382;43.160;24.148;2022-10-19T01:49:51;6.38;;;2.75;;
48596;SDS011;34382;43.160;24.148;2022-10-19T01:51:27;6.07;;;2.80;;
48596;SDS011;34382;43.160;24.148;2022-10-19T01:53:02;9.05;;;3.45;;
48596;SDS011;34382;43.160;24.148;2022-10-19T01:54:37;7.50;;;3.17;;
48596;SDS011;34382;43.160;24.148;2022-10-19T01:56:13;10.93;;;3.25;;
48596;SDS011;34382;43.160;24.148;2022-10-19T01:57:46;8.35;;;3.25;;
48596;SDS011;34382;43.160;24.148;2022-10-19T01:59:20;5.95;;;2.78;;
48596;SDS011;34382;43.160;24.148;2022-10-19T02:00:52;8.40;;;3.60;;
48596;SDS011;34382;43.160;24.148;2022-10-19T02:02:26;5.60;;;2.63;;
48596;SDS011;34382;43.160;24.148;2022-10-19T02:03:59;7.82;;;3.53;;
48596;SDS011;34382;43.160;24.148;2022-10-19T02:05:31;6.82;;;2.95;;
48596;SDS011;34382;43.160;24.148;2022-10-19T02:07:04;8.73;;;3.55;;
48596;SDS011;34382;43.160;24.148;2022-10-19T02:08:39;6.20;;;2.85;;
48596;SDS011;34382;43.160;24.148;2022-10-19T02:10:15;9.52;;;3.72;;
48596;SDS011;34382;43.160;24.148;2022-10-19T02:11:48;8.30;;;3.83;;
48596;SDS011;34382;43.160;24.148;2022-10-19T02:13:27;9.15;;;3.30;;
48596;SDS011;34382;43.160;24.148;2022-10-19T02:15:01;7.97;;;3.53;;
48596;SDS011;34382;43.160;24.148;2022-10-19T02:16:42;8.40;;;3.75;;
48596;SDS011;34382;43.160;24.148;2022-10-19T02:18:25;9.02;;;3.05;;
48596;SDS011;34382;43.160;24.148;2022-10-19T02:20:03;7.15;;;2.70;;
48596;SDS011;34382;43.160;24.148;2022-10-19T02:21:35;6.63;;;2.90;;
48596;SDS011;34382;43.160;24.148;2022-10-19T02:23:07;6.70;;;3.03;;
48596;SDS011;34382;43.160;24.148;2022-10-19T02:24:40;8.98;;;3.05;;
48596;SDS011;34382;43.160;24.148;2022-10-19T02:26:12;6.25;;;2.60;;
48596;SDS011;34382;43.160;24.148;2022-10-19T02:27:44;7.43;;;2.97;;
48596;SDS011;34382;43.160;24.148;2022-10-19T02:29:16;8.10;;;3.05;;
48596;SDS011;34382;43.160;24.148;2022-10-19T02:30:48;8.90;;;2.85;;
48596;SDS011;34382;43.160;24.148;2022-10-19T02:32:20;7.93;;;2.50;;
48596;SDS011;34382;43.160;24.148;2022-10-19T02:33:52;6.05;;;2.70;;
48596;SDS011;34382;43.160;24.148;2022-10-19T02:35:25;5.97;;;2.83;;
48596;SDS011;34382;43.160;24.148;2022-10-19T02:36:57;7.72;;;2.80;;
48596;SDS011;34382;43.160;24.148;2022-10-19T02:38:29;6.95;;;3.22;;
48596;SDS011;34382;43.160;24.148;2022-10-19T02:40:02;7.60;;;2.85;;
48596;SDS011;34382;43.160;24.148;2022-10-19T02:41:36;7.22;;;2.72;;
48596;SDS011;34382;43.160;24.148;2022-10-19T02:43:11;5.55;;;2.40;;
48596;SDS011;34382;43.160;24.148;2022-10-19T02:44:55;7.78;;;3.08;;
48596;SDS011;34382;43.160;24.148;2022-10-19T02:46:34;6.57;;;2.60;;
48596;SDS011;34382;43.160;24.148;2022-10-19T02:48:12;7.72;;;2.92;;
48596;SDS011;34382;43.160;24.148;2022-10-19T02:49:49;6.97;;;2.90;;
48596;SDS011;34382;43.160;24.148;2022-10-19T02:51:28;7.82;;;3.50;;
48596;SDS011;34382;43.160;24.148;2022-10-19T02:53:10;8.73;;;3.30;;
48596;SDS011;34382;43.160;24.148;2022-10-19T02:54:43;7.50;;;3.55;;
48596;SDS011;34382;43.160;24.148;2022-10-19T02:56:15;9.57;;;4.32;;
48596;SDS011;34382;43.160;24.148;2022-10-19T02:57:47;8.82;;;3.63;;
48596;SDS011;34382;43.160;24.148;2022-10-19T02:59:19;9.10;;;4.25;;
48596;SDS011;34382;43.160;24.148;2022-10-19T03:00:51;7.50;;;3.17;;
48596;SDS011;34382;43.160;24.148;2022-10-19T03:02:23;8.15;;;3.55;;
48596;SDS011;34382;43.160;24.148;2022-10-19T03:03:56;8.63;;;4.00;;
48596;SDS011;34382;43.160;24.148;2022-10-19T03:05:28;8.00;;;4.05;;
48596;SDS011;34382;43.160;24.148;2022-10-19T03:07:00;8.23;;;3.83;;
48596;SDS011;34382;43.160;24.148;2022-10-19T03:08:32;8.93;;;4.28;;
48596;SDS011;34382;43.160;24.148;2022-10-19T03:10:04;8.38;;;3.92;;
48596;SDS011;34382;43.160;24.148;2022-10-19T03:11:37;10.00;;;3.95;;
48596;SDS011;34382;43.160;24.148;2022-10-19T03:13:09;9.15;;;4.18;;
48596;SDS011;34382;43.160;24.148;2022-10-19T03:14:41;7.88;;;3.70;;
48596;SDS011;34382;43.160;24.148;2022-10-19T03:16:13;8.32;;;3.60;;
48596;SDS011;34382;43.160;24.148;2022-10-19T03:17:45;7.82;;;3.22;;
48596;SDS011;34382;43.160;24.148;2022-10-19T03:19:17;7.45;;;3.08;;
48596;SDS011;34382;43.160;24.148;2022-10-19T03:20:49;8.00;;;3.67;;
48596;SDS011;34382;43.160;24.148;2022-10-19T03:22:21;7.07;;;3.22;;
48596;SDS011;34382;43.160;24.148;2022-10-19T03:23:53;8.77;;;2.80;;
48596;SDS011;34382;43.160;24.148;2022-10-19T03:25:26;7.80;;;3.30;;
48596;SDS011;34382;43.160;24.148;2022-10-19T03:27:01;7.90;;;3.40;;
48596;SDS011;34382;43.160;24.148;2022-10-19T03:28:33;7.22;;;2.85;;
48596;SDS011;34382;43.160;24.148;2022-10-19T03:30:05;6.80;;;2.75;;
48596;SDS011;34382;43.160;24.148;2022-10-19T03:31:40;6.47;;;2.83;;
48596;SDS011;34382;43.160;24.148;2022-10-19T03:33:12;8.63;;;3.35;;
48596;SDS011;34382;43.160;24.148;2022-10-19T03:34:45;6.70;;;3.17;;
48596;SDS011;34382;43.160;24.148;2022-10-19T03:37:56;7.65;;;3.35;;
48596;SDS011;34382;43.160;24.148;2022-10-19T03:39:28;6.35;;;2.60;;
48596;SDS011;34382;43.160;24.148;2022-10-19T03:41:04;7.07;;;2.95;;
48596;SDS011;34382;43.160;24.148;2022-10-19T03:42:37;7.35;;;3.20;;
48596;SDS011;34382;43.160;24.148;2022-10-19T03:44:09;6.47;;;2.75;;
48596;SDS011;34382;43.160;24.148;2022-10-19T03:45:44;8.45;;;3.25;;
48596;SDS011;34382;43.160;24.148;2022-10-19T03:47:17;7.22;;;3.63;;
48596;SDS011;34382;43.160;24.148;2022-10-19T03:48:49;8.68;;;3.00;;
48596;SDS011;34382;43.160;24.148;2022-10-19T03:50:21;6.20;;;2.78;;
48596;SDS011;34382;43.160;24.148;2022-10-19T03:51:53;9.70;;;3.30;;
48596;SDS011;34382;43.160;24.148;2022-10-19T03:53:26;6.05;;;2.67;;
48596;SDS011;34382;43.160;24.148;2022-10-19T03:55:01;6.78;;;2.88;;
48596;SDS011;34382;43.160;24.148;2022-10-19T03:56:34;5.72;;;2.50;;
48596;SDS011;34382;43.160;24.148;2022-10-19T03:59:40;6.60;;;3.08;;
48596;SDS011;34382;43.160;24.148;2022-10-19T04:01:14;6.47;;;2.63;;
48596;SDS011;34382;43.160;24.148;2022-10-19T04:02:48;7.10;;;2.97;;
48596;SDS011;34382;43.160;24.148;2022-10-19T04:04:20;7.68;;;3.03;;
48596;SDS011;34382;43.160;24.148;2022-10-19T04:05:59;8.57;;;2.80;;
48596;SDS011;34382;43.160;24.148;2022-10-19T04:07:33;7.63;;;2.97;;
48596;SDS011;34382;43.160;24.148;2022-10-19T04:09:06;6.20;;;3.35;;
48596;SDS011;34382;43.160;24.148;2022-10-19T04:10:39;9.35;;;3.35;;
48596;SDS011;34382;43.160;24.148;2022-10-19T04:12:11;10.57;;;3.15;;
48596;SDS011;34382;43.160;24.148;2022-10-19T04:13:43;9.10;;;3.63;;
48596;SDS011;34382;43.160;24.148;2022-10-19T04:15:15;7.43;;;2.90;;
48596;SDS011;34382;43.160;24.148;2022-10-19T04:16:47;7.80;;;3.72;;
48596;SDS011;34382;43.160;24.148;2022-10-19T04:18:20;7.05;;;3.38;;
48596;SDS011;34382;43.160;24.148;2022-10-19T04:19:52;7.28;;;3.20;;
48596;SDS011;34382;43.160;24.148;2022-10-19T04:21:25;8.15;;;2.92;;
48596;SDS011;34382;43.160;24.148;2022-10-19T04:23:01;7.70;;;3.10;;
48596;SDS011;34382;43.160;24.148;2022-10-19T04:24:33;6.00;;;2.70;;
48596;SDS011;34382;43.160;24.148;2022-10-19T04:26:06;7.45;;;2.88;;
48596;SDS011;34382;43.160;24.148;2022-10-19T04:27:38;7.30;;;3.15;;
48596;SDS011;34382;43.160;24.148;2022-10-19T04:29:11;6.45;;;2.75;;
48596;SDS011;34382;43.160;24.148;2022-10-19T04:30:43;6.87;;;2.53;;
48596;SDS011;34382;43.160;24.148;2022-10-19T04:32:15;7.00;;;3.10;;
48596;SDS011;34382;43.160;24.148;2022-10-19T04:33:47;6.18;;;2.75;;
48596;SDS011;34382;43.160;24.148;2022-10-19T04:35:19;6.57;;;2.88;;
48596;SDS011;34382;43.160;24.148;2022-10-19T04:36:52;6.05;;;2.50;;
48596;SDS011;34382;43.160;24.148;2022-10-19T04:38:24;7.10;;;2.60;;
48596;SDS011;34382;43.160;24.148;2022-10-19T04:39:57;8.85;;;2.90;;
48596;SDS011;34382;43.160;24.148;2022-10-19T04:41:29;6.72;;;2.97;;
48596;SDS011;34382;43.160;24.148;2022-10-19T04:44:33;6.40;;;3.10;;
48596;SDS011;34382;43.160;24.148;2022-10-19T04:46:07;5.63;;;2.80;;
48596;SDS011;34382;43.160;24.148;2022-10-19T04:47:41;8.10;;;2.60;;
48596;SDS011;34382;43.160;24.148;2022-10-19T04:49:13;6.47;;;2.70;;
48596;SDS011;34382;43.160;24.148;2022-10-19T04:50:52;6.80;;;2.75;;
48596;SDS011;34382;43.160;24.148;2022-10-19T04:52:25;7.35;;;2.72;;
48596;SDS011;34382;43.160;24.148;2022-10-19T04:53:58;6.20;;;2.70;;
48596;SDS011;34382;43.160;24.148;2022-10-19T04:55:30;7.22;;;3.08;;
48596;SDS011;34382;43.160;24.148;2022-10-19T04:57:02;7.07;;;3.00;;
48596;SDS011;34382;43.160;24.148;2022-10-19T04:58:34;5.68;;;2.58;;
48596;SDS011;34382;43.160;24.148;2022-10-19T05:00:07;5.18;;;2.72;;
48596;SDS011;34382;43.160;24.148;2022-10-19T05:01:40;8.15;;;3.05;;
48596;SDS011;34382;43.160;24.148;2022-10-19T05:03:17;6.55;;;2.67;;
48596;SDS011;34382;43.160;24.148;2022-10-19T05:04:49;7.78;;;2.92;;
48596;SDS011;34382;43.160;24.148;2022-10-19T05:06:22;7.28;;;2.92;;
48596;SDS011;34382;43.160;24.148;2022-10-19T05:07:54;9.00;;;3.42;;
48596;SDS011;34382;43.160;24.148;2022-10-19T05:09:26;6.43;;;2.45;;
48596;SDS011;34382;43.160;24.148;2022-10-19T05:10:59;6.55;;;2.60;;
48596;SDS011;34382;43.160;24.148;2022-10-19T05:12:35;9.82;;;3.22;;
48596;SDS011;34382;43.160;24.148;2022-10-19T05:14:07;8.73;;;3.33;;
48596;SDS011;34382;43.160;24.148;2022-10-19T05:15:40;7.20;;;3.05;;
48596;SDS011;34382;43.160;24.148;2022-10-19T05:17:12;7.53;;;2.80;;
48596;SDS011;34382;43.160;24.148;2022-10-19T05:18:47;7.50;;;2.83;;
48596;SDS011;34382;43.160;24.148;2022-10-19T05:20:21;9.48;;;2.97;;
48596;SDS011;34382;43.160;24.148;2022-10-19T05:21:54;8.38;;;3.30;;
48596;SDS011;34382;43.160;24.148;2022-10-19T05:23:26;5.93;;;2.55;;
48596;SDS011;34382;43.160;24.148;2022-10-19T05:24:59;5.93;;;2.45;;
48596;SDS011;34382;43.160;24.148;2022-10-19T05:26:34;6.43;;;2.85;;
48596;SDS011;34382;43.160;24.148;2022-10-19T05:28:06;7.78;;;3.58;;
48596;SDS011;34382;43.160;24.148;2022-10-19T05:29:38;6.75;;;3.17;;
48596;SDS011;34382;43.160;24.148;2022-10-19T05:31:18;6.63;;;2.92;;
48596;SDS011;34382;43.160;24.148;2022-10-19T05:32:51;7.15;;;2.90;;
48596;SDS011;34382;43.160;24.148;2022-10-19T05:34:23;7.40;;;2.88;;
48596;SDS011;34382;43.160;24.148;2022-10-19T05:35:55;7.45;;;3.40;;
48596;SDS011;34382;43.160;24.148;2022-10-19T05:37:28;7.28;;;3.10;;
48596;SDS011;34382;43.160;24.148;2022-10-19T05:39:24;6.00;;;2.85;;
48596;SDS011;34382;43.160;24.148;2022-10-19T05:40:56;6.18;;;3.05;;
48596;SDS011;34382;43.160;24.148;2022-10-19T05:44:02;7.93;;;2.90;;
48596;SDS011;34382;43.160;24.148;2022-10-19T05:45:35;9.73;;;3.33;;
48596;SDS011;34382;43.160;24.148;2022-10-19T05:47:07;7.07;;;2.60;;
48596;SDS011;34382;43.160;24.148;2022-10-19T05:48:40;6.72;;;2.80;;
48596;SDS011;34382;43.160;24.148;2022-10-19T05:50:12;6.75;;;3.15;;
48596;SDS011;34382;43.160;24.148;2022-10-19T05:51:44;8.23;;;3.53;;
48596;SDS011;34382;43.160;24.148;2022-10-19T05:53:16;8.23;;;3.33;;
48596;SDS011;34382;43.160;24.148;2022-10-19T05:54:49;6.65;;;3.35;;
48596;SDS011;34382;43.160;24.148;2022-10-19T05:56:22;7.00;;;3.20;;
48596;SDS011;34382;43.160;24.148;2022-10-19T05:57:56;7.50;;;3.60;;
48596;SDS011;34382;43.160;24.148;2022-10-19T05:59:29;9.20;;;3.95;;
48596;SDS011;34382;43.160;24.148;2022-10-19T06:01:01;9.75;;;4.47;;
48596;SDS011;34382;43.160;24.148;2022-10-19T06:02:34;8.47;;;4.07;;
48596;SDS011;34382;43.160;24.148;2022-10-19T06:04:06;8.70;;;3.88;;
48596;SDS011;34382;43.160;24.148;2022-10-19T06:05:38;9.20;;;3.85;;
48596;SDS011;34382;43.160;24.148;2022-10-19T06:07:10;8.60;;;3.72;;
48596;SDS011;34382;43.160;24.148;2022-10-19T06:08:42;6.57;;;3.33;;
48596;SDS011;34382;43.160;24.148;2022-10-19T06:10:15;7.53;;;3.53;;
48596;SDS011;34382;43.160;24.148;2022-10-19T06:11:48;7.70;;;3.72;;
48596;SDS011;34382;43.160;24.148;2022-10-19T06:13:20;7.68;;;3.50;;
48596;SDS011;34382;43.160;24.148;2022-10-19T06:14:52;8.60;;;3.35;;
48596;SDS011;34382;43.160;24.148;2022-10-19T06:16:26;7.60;;;3.58;;
48596;SDS011;34382;43.160;24.148;2022-10-19T06:17:59;10.10;;;3.90;;
48596;SDS011;34382;43.160;24.148;2022-10-19T06:19:32;8.70;;;3.47;;
48596;SDS011;34382;43.160;24.148;2022-10-19T06:21:09;7.30;;;3.83;;
48596;SDS011;34382;43.160;24.148;2022-10-19T06:22:42;9.65;;;3.90;;
48596;SDS011;34382;43.160;24.148;2022-10-19T06:24:15;9.00;;;3.70;;
48596;SDS011;34382;43.160;24.148;2022-10-19T06:25:47;8.63;;;3.63;;
48596;SDS011;34382;43.160;24.148;2022-10-19T06:27:19;8.48;;;3.97;;
48596;SDS011;34382;43.160;24.148;2022-10-19T06:28:53;9.90;;;4.40;;
48596;SDS011;34382;43.160;24.148;2022-10-19T06:30:26;8.80;;;3.88;;
48596;SDS011;34382;43.160;24.148;2022-10-19T06:31:59;8.65;;;3.50;;
48596;SDS011;34382;43.160;24.148;2022-10-19T06:33:31;7.55;;;3.80;;
48596;SDS011;34382;43.160;24.148;2022-10-19T06:35:04;8.43;;;4.03;;
48596;SDS011;34382;43.160;24.148;2022-10-19T06:36:36;8.63;;;3.92;;
48596;SDS011;34382;43.160;24.148;2022-10-19T06:38:09;10.25;;;4.32;;
48596;SDS011;34382;43.160;24.148;2022-10-19T06:39:41;7.88;;;3.78;;
48596;SDS011;34382;43.160;24.148;2022-10-19T06:41:13;12.45;;;4.25;;
48596;SDS011;34382;43.160;24.148;2022-10-19T06:42:45;8.88;;;4.00;;
48596;SDS011;34382;43.160;24.148;2022-10-19T06:44:17;7.80;;;3.97;;
48596;SDS011;34382;43.160;24.148;2022-10-19T06:45:50;8.50;;;3.70;;
48596;SDS011;34382;43.160;24.148;2022-10-19T06:47:22;7.47;;;3.22;;
48596;SDS011;34382;43.160;24.148;2022-10-19T06:48:59;8.05;;;3.70;;
48596;SDS011;34382;43.160;24.148;2022-10-19T06:50:32;8.50;;;3.70;;
48596;SDS011;34382;43.160;24.148;2022-10-19T06:52:06;7.72;;;3.80;;
48596;SDS011;34382;43.160;24.148;2022-10-19T06:53:38;8.13;;;3.78;;
48596;SDS011;34382;43.160;24.148;2022-10-19T06:55:10;9.20;;;3.80;;
48596;SDS011;34382;43.160;24.148;2022-10-19T06:56:42;7.28;;;3.72;;
48596;SDS011;34382;43.160;24.148;2022-10-19T06:58:15;8.63;;;4.07;;
48596;SDS011;34382;43.160;24.148;2022-10-19T06:59:47;8.45;;;3.88;;
48596;SDS011;34382;43.160;24.148;2022-10-19T07:01:23;10.05;;;4.22;;
48596;SDS011;34382;43.160;24.148;2022-10-19T07:02:57;8.60;;;3.50;;
48596;SDS011;34382;43.160;24.148;2022-10-19T07:04:30;7.57;;;3.90;;
48596;SDS011;34382;43.160;24.148;2022-10-19T07:06:03;9.50;;;4.07;;
48596;SDS011;34382;43.160;24.148;2022-10-19T07:07:40;9.43;;;4.13;;
48596;SDS011;34382;43.160;24.148;2022-10-19T07:09:12;8.80;;;3.58;;
48596;SDS011;34382;43.160;24.148;2022-10-19T07:10:48;9.10;;;3.88;;
48596;SDS011;34382;43.160;24.148;2022-10-19T07:12:21;9.88;;;4.05;;
48596;SDS011;34382;43.160;24.148;2022-10-19T07:13:53;8.60;;;4.20;;
48596;SDS011;34382;43.160;24.148;2022-10-19T07:15:25;8.27;;;3.95;;
48596;SDS011;34382;43.160;24.148;2022-10-19T07:16:57;9.18;;;3.92;;
48596;SDS011;34382;43.160;24.148;2022-10-19T07:18:29;9.20;;;3.88;;
48596;SDS011;34382;43.160;24.148;2022-10-19T07:20:01;10.00;;;5.20;;
48596;SDS011;34382;43.160;24.148;2022-10-19T07:21:34;9.23;;;3.65;;
48596;SDS011;34382;43.160;24.148;2022-10-19T07:23:12;8.23;;;4.20;;
48596;SDS011;34382;43.160;24.148;2022-10-19T07:24:44;7.65;;;3.45;;
48596;SDS011;34382;43.160;24.148;2022-10-19T07:26:17;8.98;;;4.20;;
48596;SDS011;34382;43.160;24.148;2022-10-19T07:27:52;9.75;;;3.90;;
48596;SDS011;34382;43.160;24.148;2022-10-19T07:29:24;8.57;;;4.00;;
48596;SDS011;34382;43.160;24.148;2022-10-19T07:30:56;7.72;;;3.47;;
48596;SDS011;34382;43.160;24.148;2022-10-19T07:32:28;8.40;;;3.55;;
48596;SDS011;34382;43.160;24.148;2022-10-19T07:34:01;7.32;;;3.60;;
48596;SDS011;34382;43.160;24.148;2022-10-19T07:35:34;8.48;;;3.75;;
48596;SDS011;34382;43.160;24.148;2022-10-19T07:37:07;8.50;;;3.22;;
48596;SDS011;34382;43.160;24.148;2022-10-19T07:38:39;8.85;;;3.78;;
48596;SDS011;34382;43.160;24.148;2022-10-19T07:40:12;7.80;;;3.77;;
48596;SDS011;34382;43.160;24.148;2022-10-19T07:41:44;7.47;;;3.38;;
48596;SDS011;34382;43.160;24.148;2022-10-19T07:43:17;7.45;;;3.65;;
48596;SDS011;34382;43.160;24.148;2022-10-19T07:44:49;7.47;;;3.43;;
48596;SDS011;34382;43.160;24.148;2022-10-19T07:46:22;8.48;;;4.07;;
48596;SDS011;34382;43.160;24.148;2022-10-19T07:47:56;8.38;;;3.88;;
48596;SDS011;34382;43.160;24.148;2022-10-19T07:49:28;6.82;;;3.40;;
48596;SDS011;34382;43.160;24.148;2022-10-19T07:51:01;7.72;;;3.33;;
48596;SDS011;34382;43.160;24.148;2022-10-19T07:52:34;7.60;;;3.33;;
48596;SDS011;34382;43.160;24.148;2022-10-19T07:54:07;8.35;;;3.90;;
48596;SDS011;34382;43.160;24.148;2022-10-19T07:55:39;8.82;;;3.78;;
48596;SDS011;34382;43.160;24.148;2022-10-19T07:57:12;7.82;;;3.17;;
48596;SDS011;34382;43.160;24.148;2022-10-19T07:58:44;13.10;;;4.07;;
48596;SDS011;34382;43.160;24.148;2022-10-19T08:00:16;8.18;;;3.60;;
48596;SDS011;34382;43.160;24.148;2022-10-19T08:01:48;8.07;;;3.67;;
48596;SDS011;34382;43.160;24.148;2022-10-19T08:03:21;7.88;;;3.30;;
48596;SDS011;34382;43.160;24.148;2022-10-19T08:05:13;8.65;;;3.38;;
48596;SDS011;34382;43.160;24.148;2022-10-19T08:06:46;7.40;;;3.28;;
48596;SDS011;34382;43.160;24.148;2022-10-19T08:08:19;7.03;;;3.25;;
48596;SDS011;34382;43.160;24.148;2022-10-19T08:09:51;6.68;;;3.08;;
48596;SDS011;34382;43.160;24.148;2022-10-19T08:12:57;8.73;;;3.70;;
48596;SDS011;34382;43.160;24.148;2022-10-19T08:14:30;7.43;;;3.30;;
48596;SDS011;34382;43.160;24.148;2022-10-19T08:16:02;7.03;;;3.47;;
48596;SDS011;34382;43.160;24.148;2022-10-19T08:17:35;8.55;;;3.45;;
48596;SDS011;34382;43.160;24.148;2022-10-19T08:20:42;8.00;;;3.30;;
48596;SDS011;34382;43.160;24.148;2022-10-19T08:22:14;9.55;;;3.38;;
48596;SDS011;34382;43.160;24.148;2022-10-19T08:23:48;8.82;;;3.50;;
48596;SDS011;34382;43.160;24.148;2022-10-19T08:25:20;8.75;;;3.20;;
48596;SDS011;34382;43.160;24.148;2022-10-19T08:26:52;8.90;;;3.70;;
48596;SDS011;34382;43.160;24.148;2022-10-19T08:28:25;7.55;;;3.35;;
48596;SDS011;34382;43.160;24.148;2022-10-19T08:29:57;7.78;;;3.53;;
48596;SDS011;34382;43.160;24.148;2022-10-19T08:31:29;9.80;;;3.00;;
48596;SDS011;34382;43.160;24.148;2022-10-19T08:33:02;8.50;;;3.03;;
48596;SDS011;34382;43.160;24.148;2022-10-19T08:34:35;6.75;;;3.28;;
48596;SDS011;34382;43.160;24.148;2022-10-19T08:36:08;7.70;;;3.33;;
48596;SDS011;34382;43.160;24.148;2022-10-19T08:37:41;5.82;;;3.03;;
48596;SDS011;34382;43.160;24.148;2022-10-19T08:39:16;6.75;;;2.90;;
48596;SDS011;34382;43.160;24.148;2022-10-19T08:40:48;8.35;;;3.22;;
48596;SDS011;34382;43.160;24.148;2022-10-19T08:42:23;8.77;;;3.20;;
48596;SDS011;34382;43.160;24.148;2022-10-19T08:44:05;6.93;;;2.90;;
48596;SDS011;34382;43.160;24.148;2022-10-19T08:45:57;7.60;;;3.08;;
48596;SDS011;34382;43.160;24.148;2022-10-19T08:47:58;8.40;;;3.15;;
48596;SDS011;34382;43.160;24.148;2022-10-19T08:49:31;7.43;;;3.10;;
48596;SDS011;34382;43.160;24.148;2022-10-19T08:51:03;7.53;;;3.08;;
48596;SDS011;34382;43.160;24.148;2022-10-19T08:52:36;7.63;;;3.08;;
48596;SDS011;34382;43.160;24.148;2022-10-19T08:54:12;8.23;;;3.28;;
48596;SDS011;34382;43.160;24.148;2022-10-19T08:59:14;7.88;;;3.30;;
48596;SDS011;34382;43.160;24.148;2022-10-19T09:01:14;6.82;;;2.90;;
48596;SDS011;34382;43.160;24.148;2022-10-19T09:05:52;7.50;;;3.13;;
48596;SDS011;34382;43.160;24.148;2022-10-19T09:07:33;7.80;;;2.80;;
48596;SDS011;34382;43.160;24.148;2022-10-19T09:09:11;6.72;;;2.80;;
48596;SDS011;34382;43.160;24.148;2022-10-19T09:10:45;7.35;;;2.95;;
48596;SDS011;34382;43.160;24.148;2022-10-19T09:12:23;7.35;;;2.78;;
48596;SDS011;34382;43.160;24.148;2022-10-19T09:14:29;6.72;;;3.10;;
48596;SDS011;34382;43.160;24.148;2022-10-19T09:16:04;7.30;;;2.95;;
48596;SDS011;34382;43.160;24.148;2022-10-19T09:17:36;5.07;;;2.38;;
48596;SDS011;34382;43.160;24.148;2022-10-19T09:19:11;7.50;;;2.50;;
48596;SDS011;34382;43.160;24.148;2022-10-19T09:21:00;5.72;;;2.70;;
48596;SDS011;34382;43.160;24.148;2022-10-19T09:24:26;6.32;;;2.80;;
48596;SDS011;34382;43.160;24.148;2022-10-19T09:25:59;7.60;;;2.67;;
48596;SDS011;34382;43.160;24.148;2022-10-19T09:27:35;6.50;;;2.50;;
48596;SDS011;34382;43.160;24.148;2022-10-19T09:29:20;6.03;;;2.50;;
48596;SDS011;34382;43.160;24.148;2022-10-19T09:31:38;6.80;;;3.28;;
48596;SDS011;34382;43.160;24.148;2022-10-19T09:33:15;6.07;;;2.58;;
48596;SDS011;34382;43.160;24.148;2022-10-19T09:34:54;6.35;;;2.72;;
48596;SDS011;34382;43.160;24.148;2022-10-19T09:36:31;7.22;;;2.97;;
48596;SDS011;34382;43.160;24.148;2022-10-19T09:38:22;7.50;;;2.80;;
48596;SDS011;34382;43.160;24.148;2022-10-19T09:39:56;6.00;;;2.80;;
48596;SDS011;34382;43.160;24.148;2022-10-19T09:41:28;7.32;;;3.30;;
48596;SDS011;34382;43.160;24.148;2022-10-19T09:43:04;7.68;;;2.85;;
48596;SDS011;34382;43.160;24.148;2022-10-19T09:44:50;9.88;;;3.00;;
48596;SDS011;34382;43.160;24.148;2022-10-19T09:46:28;8.15;;;4.22;;
48596;SDS011;34382;43.160;24.148;2022-10-19T09:48:26;7.65;;;2.72;;
48596;SDS011;34382;43.160;24.148;2022-10-19T09:50:05;6.53;;;2.58;;
48596;SDS011;34382;43.160;24.148;2022-10-19T09:51:57;7.18;;;2.85;;